ROT381T LROP-LFPG
Flight info
| Callsign | ROT381T |
|---|---|
| Flight time | 2h 55m |
| Altitude | 38000 |
| Route | SOKRU DCT OXDOC DCT ENIMA DCT ERUKO DCT GESBA DCT MOPUG DCT DIMLO DCT DETSA DCT SAFFA DCT ELMUR DCT RIPUS L613 HOC DCT MOROK DCT PENDU DCT JAVVU DCT GIVRI DCT TINIL |
| Aircraft | B738/M-SDE2E3FGHIRWXY/LB1 |
Departure
| Time | 2026-05-08 09:58 |
|---|---|
| Airport | Bucharest Henri Coandă International Airport (LROP) |
Arrival
| Time | 2026-05-08 12:53 |
|---|---|
| Airport | Charles de Gaulle International Airport (LFPG) |
| Time | Latitude | Longitude | Altitude | Speed | Heading |
|---|---|---|---|---|---|
| 2026-05-08 09:28 | 44.57015 | 26.08079 | 319 ft | 0 kts | 354° |
| 2026-05-08 09:50 | 44.56990 | 26.08084 | 310 ft | 4 kts | 348° |
| 2026-05-08 09:50 | 44.56965 | 26.08094 | 319 ft | 4 kts | 335° |
| 2026-05-08 09:50 | 44.56944 | 26.08113 | 317 ft | 4 kts | 300° |
| 2026-05-08 09:50 | 44.56939 | 26.08132 | 317 ft | 0 kts | 264° |
| 2026-05-08 09:53 | 44.56939 | 26.08129 | 319 ft | 1 kts | 264° |
| 2026-05-08 09:53 | 44.56937 | 26.08108 | 319 ft | 4 kts | 264° |
| 2026-05-08 09:54 | 44.56934 | 26.08062 | 318 ft | 6 kts | 264° |
| 2026-05-08 09:54 | 44.56915 | 26.08000 | 318 ft | 8 kts | 223° |
| 2026-05-08 09:54 | 44.56855 | 26.07986 | 319 ft | 10 kts | 173° |
| 2026-05-08 09:54 | 44.56780 | 26.07991 | 319 ft | 12 kts | 196° |
| 2026-05-08 09:55 | 44.56733 | 26.07895 | 319 ft | 13 kts | 256° |
| 2026-05-08 09:55 | 44.56713 | 26.07777 | 319 ft | 7 kts | 255° |
| 2026-05-08 09:55 | 44.56697 | 26.07709 | 319 ft | 7 kts | 244° |
| 2026-05-08 09:55 | 44.56658 | 26.07669 | 319 ft | 7 kts | 195° |
| 2026-05-08 09:56 | 44.56610 | 26.07671 | 318 ft | 7 kts | 173° |
| 2026-05-08 09:56 | 44.56563 | 26.07680 | 319 ft | 7 kts | 173° |
| 2026-05-08 09:56 | 44.56517 | 26.07688 | 318 ft | 7 kts | 173° |
| 2026-05-08 09:56 | 44.56478 | 26.07716 | 318 ft | 7 kts | 125° |
| 2026-05-08 09:57 | 44.56473 | 26.07764 | 317 ft | 0 kts | 83° |
| 2026-05-08 09:57 | 44.56480 | 26.07847 | 319 ft | 34 kts | 83° |
| 2026-05-08 09:57 | 44.56529 | 26.08509 | 322 ft | 102 kts | 84° |
| 2026-05-08 09:58 | 44.56627 | 26.09789 | 319 ft | 160 kts | 84° |
| 2026-05-08 09:58 | 44.56757 | 26.11573 | 438 ft | 199 kts | 83° |
| 2026-05-08 09:58 | 44.56864 | 26.13449 | 1275 ft | 193 kts | 86° |
| 2026-05-08 09:58 | 44.56965 | 26.15223 | 2042 ft | 194 kts | 85° |
| 2026-05-08 09:59 | 44.57080 | 26.16881 | 2511 ft | 212 kts | 85° |
| 2026-05-08 09:59 | 44.57235 | 26.19049 | 2868 ft | 233 kts | 84° |
| 2026-05-08 09:59 | 44.57687 | 26.21267 | 3351 ft | 247 kts | 58° |
| 2026-05-08 09:59 | 44.58971 | 26.22976 | 3692 ft | 265 kts | 25° |
| 2026-05-08 10:00 | 44.60771 | 26.23533 | 4393 ft | 269 kts | 355° |
| 2026-05-08 10:00 | 44.62573 | 26.23032 | 5230 ft | 270 kts | 341° |
| 2026-05-08 10:00 | 44.64370 | 26.22217 | 6000 ft | 275 kts | 340° |
| 2026-05-08 10:00 | 44.66199 | 26.21349 | 6779 ft | 278 kts | 340° |
| 2026-05-08 10:01 | 44.68044 | 26.20493 | 7559 ft | 281 kts | 340° |
| 2026-05-08 10:01 | 44.69918 | 26.19651 | 8328 ft | 284 kts | 341° |
| 2026-05-08 10:01 | 44.71818 | 26.18814 | 9090 ft | 288 kts | 341° |
| 2026-05-08 10:01 | 44.73528 | 26.18067 | 9790 ft | 291 kts | 341° |
| 2026-05-08 10:02 | 44.74755 | 26.17531 | 10236 ft | 293 kts | 341° |
| 2026-05-08 10:02 | 44.76663 | 26.16301 | 10544 ft | 309 kts | 318° |
| 2026-05-08 10:02 | 44.78068 | 26.13874 | 10747 ft | 327 kts | 300° |
| 2026-05-08 10:02 | 44.79273 | 26.11043 | 10913 ft | 348 kts | 299° |
| 2026-05-08 10:03 | 44.80545 | 26.08060 | 11284 ft | 360 kts | 300° |
| 2026-05-08 10:03 | 44.81415 | 26.06053 | 11708 ft | 363 kts | 300° |
| 2026-05-08 10:03 | 44.83173 | 26.02035 | 12644 ft | 365 kts | 300° |
| 2026-05-08 10:03 | 44.84076 | 25.99979 | 13124 ft | 367 kts | 300° |
| 2026-05-08 10:04 | 44.85376 | 25.97021 | 13796 ft | 369 kts | 300° |
| 2026-05-08 10:04 | 44.86995 | 25.92788 | 14527 ft | 374 kts | 289° |
| 2026-05-08 10:04 | 44.87754 | 25.89313 | 15081 ft | 377 kts | 285° |
| 2026-05-08 10:04 | 44.88233 | 25.86904 | 15474 ft | 379 kts | 285° |
| 2026-05-08 10:05 | 44.89171 | 25.82136 | 16244 ft | 383 kts | 285° |
| 2026-05-08 10:05 | 44.89659 | 25.79692 | 16623 ft | 385 kts | 285° |
| 2026-05-08 10:05 | 44.90398 | 25.76046 | 17175 ft | 388 kts | 285° |
| 2026-05-08 10:05 | 44.91153 | 25.72371 | 17727 ft | 392 kts | 285° |
| 2026-05-08 10:06 | 44.91921 | 25.68665 | 18249 ft | 395 kts | 285° |
| 2026-05-08 10:06 | 44.92698 | 25.64932 | 18732 ft | 399 kts | 285° |
| 2026-05-08 10:06 | 44.93292 | 25.62077 | 19107 ft | 400 kts | 285° |
| 2026-05-08 10:06 | 44.94051 | 25.58428 | 19614 ft | 401 kts | 285° |
| 2026-05-08 10:07 | 44.94836 | 25.54647 | 20128 ft | 403 kts | 285° |
| 2026-05-08 10:07 | 44.95625 | 25.50842 | 20614 ft | 405 kts | 285° |
| 2026-05-08 10:07 | 44.96417 | 25.47011 | 21047 ft | 408 kts | 285° |
| 2026-05-08 10:07 | 44.97167 | 25.43375 | 21504 ft | 410 kts | 285° |
| 2026-05-08 10:08 | 44.97966 | 25.39499 | 21942 ft | 412 kts | 285° |
| 2026-05-08 10:08 | 44.98562 | 25.36599 | 22271 ft | 413 kts | 285° |
| 2026-05-08 10:08 | 44.99358 | 25.32739 | 22694 ft | 416 kts | 285° |
| 2026-05-08 10:08 | 45.00300 | 25.28864 | 23121 ft | 418 kts | 289° |
| 2026-05-08 10:09 | 45.01329 | 25.25017 | 23544 ft | 420 kts | 289° |
| 2026-05-08 10:09 | 45.02353 | 25.21174 | 23949 ft | 421 kts | 289° |
| 2026-05-08 10:09 | 45.03311 | 25.17316 | 24307 ft | 422 kts | 285° |
| 2026-05-08 10:09 | 45.04005 | 25.13573 | 24606 ft | 423 kts | 282° |
| 2026-05-08 10:10 | 45.04673 | 25.09507 | 24939 ft | 425 kts | 282° |
| 2026-05-08 10:10 | 45.05333 | 25.05422 | 25273 ft | 427 kts | 282° |
| 2026-05-08 10:10 | 45.06009 | 25.01334 | 25604 ft | 428 kts | 282° |
| 2026-05-08 10:10 | 45.06707 | 24.97234 | 25911 ft | 430 kts | 282° |
| 2026-05-08 10:11 | 45.07417 | 24.93105 | 26214 ft | 432 kts | 282° |
| 2026-05-08 10:11 | 45.08077 | 24.89531 | 26483 ft | 434 kts | 286° |
| 2026-05-08 10:11 | 45.09111 | 24.85507 | 26827 ft | 436 kts | 289° |
| 2026-05-08 10:11 | 45.10184 | 24.81738 | 27125 ft | 437 kts | 290° |
| 2026-05-08 10:12 | 45.11346 | 24.77750 | 27391 ft | 439 kts | 290° |
| 2026-05-08 10:12 | 45.12515 | 24.73739 | 27633 ft | 442 kts | 290° |
| 2026-05-08 10:12 | 45.13676 | 24.69718 | 27909 ft | 443 kts | 290° |
| 2026-05-08 10:12 | 45.14838 | 24.65650 | 28191 ft | 444 kts | 290° |
| 2026-05-08 10:13 | 45.15989 | 24.61584 | 28509 ft | 444 kts | 290° |
| 2026-05-08 10:13 | 45.17127 | 24.57533 | 28943 ft | 442 kts | 290° |
| 2026-05-08 10:13 | 45.18186 | 24.53752 | 29372 ft | 440 kts | 289° |
| 2026-05-08 10:13 | 45.19260 | 24.49900 | 29767 ft | 438 kts | 289° |
| 2026-05-08 10:14 | 45.20379 | 24.45882 | 30117 ft | 437 kts | 289° |
| 2026-05-08 10:14 | 45.21491 | 24.41877 | 30404 ft | 437 kts | 289° |
| 2026-05-08 10:14 | 45.22605 | 24.37863 | 30731 ft | 436 kts | 289° |
| 2026-05-08 10:14 | 45.23711 | 24.33869 | 31062 ft | 435 kts | 289° |
| 2026-05-08 10:15 | 45.24812 | 24.29889 | 31348 ft | 434 kts | 288° |
| 2026-05-08 10:15 | 45.25915 | 24.25896 | 31618 ft | 433 kts | 288° |
| 2026-05-08 10:15 | 45.27012 | 24.21919 | 31946 ft | 432 kts | 288° |
| 2026-05-08 10:15 | 45.28104 | 24.17953 | 32277 ft | 431 kts | 288° |
| 2026-05-08 10:16 | 45.29191 | 24.13999 | 32611 ft | 429 kts | 288° |
| 2026-05-08 10:16 | 45.30275 | 24.10049 | 32883 ft | 429 kts | 288° |
| 2026-05-08 10:16 | 45.31357 | 24.06100 | 33118 ft | 429 kts | 288° |
| 2026-05-08 10:16 | 45.32436 | 24.02154 | 33391 ft | 428 kts | 288° |
| 2026-05-08 10:17 | 45.33511 | 23.98216 | 33671 ft | 427 kts | 288° |
| 2026-05-08 10:17 | 45.34581 | 23.94294 | 33928 ft | 425 kts | 288° |
| 2026-05-08 10:17 | 45.35649 | 23.90372 | 34126 ft | 426 kts | 288° |
| 2026-05-08 10:17 | 45.36716 | 23.86444 | 34326 ft | 425 kts | 287° |
| 2026-05-08 10:18 | 45.37779 | 23.82525 | 34607 ft | 423 kts | 287° |
| 2026-05-08 10:18 | 45.38833 | 23.78636 | 34884 ft | 421 kts | 287° |
| 2026-05-08 10:18 | 45.39882 | 23.74757 | 35105 ft | 420 kts | 287° |
| 2026-05-08 10:18 | 45.40916 | 23.70925 | 35294 ft | 420 kts | 287° |
| 2026-05-08 10:19 | 45.41976 | 23.66991 | 35443 ft | 420 kts | 287° |
| 2026-05-08 10:19 | 45.43017 | 23.63119 | 35591 ft | 420 kts | 287° |
| 2026-05-08 10:19 | 45.44060 | 23.59239 | 35774 ft | 419 kts | 287° |
| 2026-05-08 10:20 | 45.46120 | 23.51550 | 36043 ft | 420 kts | 287° |
| 2026-05-08 10:20 | 45.48200 | 23.43764 | 36049 ft | 420 kts | 287° |
| 2026-05-08 10:21 | 45.50265 | 23.36010 | 36052 ft | 417 kts | 287° |
| 2026-05-08 10:21 | 45.52313 | 23.28295 | 36051 ft | 415 kts | 287° |
| 2026-05-08 10:22 | 45.54335 | 23.20651 | 36070 ft | 413 kts | 287° |
| 2026-05-08 10:22 | 45.56353 | 23.12997 | 36057 ft | 412 kts | 287° |
| 2026-05-08 10:23 | 45.58366 | 23.05336 | 36052 ft | 412 kts | 287° |
| 2026-05-08 10:23 | 45.60372 | 22.97676 | 36055 ft | 412 kts | 287° |
| 2026-05-08 10:24 | 45.62377 | 22.89995 | 36067 ft | 413 kts | 287° |
| 2026-05-08 10:24 | 45.64379 | 22.82302 | 36072 ft | 415 kts | 286° |
| 2026-05-08 10:25 | 45.66388 | 22.74558 | 36069 ft | 416 kts | 286° |
| 2026-05-08 10:25 | 45.68401 | 22.66768 | 36060 ft | 418 kts | 286° |
| 2026-05-08 10:26 | 45.70418 | 22.58940 | 36060 ft | 420 kts | 286° |
| 2026-05-08 10:26 | 45.72398 | 22.51232 | 36086 ft | 420 kts | 286° |
| 2026-05-08 10:27 | 45.74414 | 22.43354 | 36075 ft | 421 kts | 286° |
| 2026-05-08 10:27 | 45.76412 | 22.35518 | 36068 ft | 422 kts | 286° |
| 2026-05-08 10:28 | 45.78353 | 22.27883 | 36058 ft | 422 kts | 286° |
| 2026-05-08 10:28 | 45.80244 | 22.20423 | 36058 ft | 421 kts | 286° |
| 2026-05-08 10:29 | 45.82231 | 22.12558 | 36071 ft | 419 kts | 286° |
| 2026-05-08 10:29 | 45.84347 | 22.04779 | 36076 ft | 419 kts | 289° |
| 2026-05-08 10:30 | 45.86731 | 21.97146 | 36068 ft | 419 kts | 290° |
| 2026-05-08 10:30 | 45.89091 | 21.89543 | 36067 ft | 418 kts | 289° |
| 2026-05-08 10:31 | 45.91404 | 21.81961 | 36058 ft | 417 kts | 289° |
| 2026-05-08 10:31 | 45.93468 | 21.74215 | 36070 ft | 414 kts | 284° |
| 2026-05-08 10:32 | 45.95108 | 21.66895 | 36066 ft | 414 kts | 284° |
| 2026-05-08 10:32 | 45.96842 | 21.59095 | 36070 ft | 415 kts | 284° |
| 2026-05-08 10:33 | 45.98613 | 21.51193 | 36078 ft | 415 kts | 284° |
| 2026-05-08 10:33 | 46.00393 | 21.43273 | 36079 ft | 417 kts | 284° |
| 2026-05-08 10:34 | 46.02164 | 21.35378 | 36073 ft | 418 kts | 284° |
| 2026-05-08 10:34 | 46.03946 | 21.27403 | 36076 ft | 419 kts | 284° |
| 2026-05-08 10:35 | 46.05728 | 21.19400 | 36073 ft | 420 kts | 284° |
| 2026-05-08 10:35 | 46.07499 | 21.11412 | 36073 ft | 420 kts | 284° |
| 2026-05-08 10:36 | 46.09137 | 21.03997 | 36077 ft | 419 kts | 284° |
| 2026-05-08 10:36 | 46.10902 | 20.95981 | 36203 ft | 420 kts | 284° |
| 2026-05-08 10:36 | 46.11739 | 20.92165 | 36423 ft | 418 kts | 284° |
| 2026-05-08 10:37 | 46.12393 | 20.89184 | 36602 ft | 417 kts | 284° |
| 2026-05-08 10:37 | 46.13243 | 20.85297 | 36825 ft | 415 kts | 284° |
| 2026-05-08 10:37 | 46.14111 | 20.81324 | 37002 ft | 415 kts | 284° |
| 2026-05-08 10:37 | 46.14976 | 20.77356 | 37128 ft | 416 kts | 284° |
| 2026-05-08 10:38 | 46.15806 | 20.73540 | 37261 ft | 416 kts | 284° |
| 2026-05-08 10:38 | 46.16616 | 20.69617 | 37448 ft | 414 kts | 280° |
| 2026-05-08 10:38 | 46.17075 | 20.66715 | 37557 ft | 413 kts | 279° |
| 2026-05-08 10:38 | 46.17650 | 20.62659 | 37685 ft | 413 kts | 278° |
| 2026-05-08 10:39 | 46.18195 | 20.58597 | 37810 ft | 413 kts | 278° |
| 2026-05-08 10:39 | 46.18730 | 20.54572 | 37955 ft | 412 kts | 278° |
| 2026-05-08 10:39 | 46.19209 | 20.50997 | 38053 ft | 412 kts | 278° |
| 2026-05-08 10:40 | 46.20309 | 20.42884 | 38067 ft | 411 kts | 278° |
| 2026-05-08 10:40 | 46.21416 | 20.34811 | 38072 ft | 409 kts | 278° |
| 2026-05-08 10:41 | 46.22499 | 20.26920 | 38070 ft | 407 kts | 278° |
| 2026-05-08 10:41 | 46.23591 | 20.18929 | 38066 ft | 406 kts | 278° |
| 2026-05-08 10:42 | 46.24677 | 20.10932 | 38065 ft | 405 kts | 278° |
| 2026-05-08 10:42 | 46.25721 | 20.03202 | 38063 ft | 406 kts | 278° |
| 2026-05-08 10:43 | 46.26750 | 19.95544 | 38063 ft | 407 kts | 278° |
| 2026-05-08 10:43 | 46.27825 | 19.87494 | 38066 ft | 408 kts | 278° |
| 2026-05-08 10:44 | 46.28899 | 19.79413 | 38063 ft | 410 kts | 278° |
| 2026-05-08 10:44 | 46.29771 | 19.72814 | 38071 ft | 412 kts | 278° |
| 2026-05-08 10:45 | 46.30840 | 19.64681 | 38071 ft | 413 kts | 277° |
| 2026-05-08 10:45 | 46.31910 | 19.56499 | 38082 ft | 415 kts | 277° |
| 2026-05-08 10:46 | 46.32738 | 19.50130 | 38069 ft | 416 kts | 277° |
| 2026-05-08 10:46 | 46.33745 | 19.42349 | 38054 ft | 416 kts | 277° |
| 2026-05-08 10:47 | 46.34784 | 19.34274 | 38069 ft | 416 kts | 277° |
| 2026-05-08 10:47 | 46.35802 | 19.26317 | 38071 ft | 416 kts | 277° |
| 2026-05-08 10:48 | 46.36844 | 19.18121 | 38081 ft | 415 kts | 277° |
| 2026-05-08 10:48 | 46.37691 | 19.11428 | 38071 ft | 415 kts | 277° |
| 2026-05-08 10:49 | 46.38734 | 19.03132 | 38062 ft | 414 kts | 277° |
| 2026-05-08 10:49 | 46.39758 | 18.94941 | 38066 ft | 412 kts | 277° |
| 2026-05-08 10:50 | 46.40773 | 18.86772 | 38073 ft | 411 kts | 277° |
| 2026-05-08 10:50 | 46.41771 | 18.78694 | 38088 ft | 410 kts | 277° |
| 2026-05-08 10:51 | 46.42603 | 18.71919 | 38071 ft | 410 kts | 277° |
| 2026-05-08 10:51 | 46.43750 | 18.62517 | 38070 ft | 409 kts | 277° |
| 2026-05-08 10:52 | 46.44572 | 18.55745 | 38066 ft | 409 kts | 277° |
| 2026-05-08 10:52 | 46.45537 | 18.47741 | 38078 ft | 409 kts | 277° |
| 2026-05-08 10:53 | 46.46510 | 18.39617 | 38081 ft | 409 kts | 277° |
| 2026-05-08 10:53 | 46.47393 | 18.32203 | 38070 ft | 409 kts | 277° |
| 2026-05-08 10:54 | 46.48358 | 18.24060 | 38074 ft | 410 kts | 277° |
| 2026-05-08 10:54 | 46.49317 | 18.15908 | 38078 ft | 410 kts | 277° |
| 2026-05-08 10:55 | 46.50223 | 18.08158 | 38072 ft | 411 kts | 277° |
| 2026-05-08 10:55 | 46.51173 | 17.99986 | 38097 ft | 411 kts | 277° |
| 2026-05-08 10:56 | 46.52120 | 17.91789 | 38081 ft | 412 kts | 277° |
| 2026-05-08 10:56 | 46.53060 | 17.83595 | 38076 ft | 412 kts | 277° |
| 2026-05-08 10:57 | 46.53995 | 17.75385 | 38074 ft | 412 kts | 276° |
| 2026-05-08 10:57 | 46.55366 | 17.63253 | 38077 ft | 412 kts | 276° |
| 2026-05-08 10:58 | 46.56287 | 17.55035 | 38078 ft | 413 kts | 276° |
| 2026-05-08 10:58 | 46.57185 | 17.46975 | 38078 ft | 413 kts | 276° |
| 2026-05-08 10:59 | 46.58092 | 17.38770 | 38074 ft | 413 kts | 276° |
| 2026-05-08 10:59 | 46.58997 | 17.30533 | 38079 ft | 412 kts | 276° |
| 2026-05-08 11:00 | 46.59864 | 17.22584 | 38073 ft | 412 kts | 276° |
| 2026-05-08 11:00 | 46.60748 | 17.14425 | 38078 ft | 412 kts | 276° |
| 2026-05-08 11:01 | 46.61634 | 17.06191 | 38078 ft | 412 kts | 276° |
| 2026-05-08 11:01 | 46.62512 | 16.97977 | 38077 ft | 412 kts | 276° |
| 2026-05-08 11:02 | 46.63799 | 16.85832 | 38088 ft | 411 kts | 276° |
| 2026-05-08 11:03 | 46.64658 | 16.77652 | 38089 ft | 411 kts | 276° |
| 2026-05-08 11:03 | 46.65458 | 16.69980 | 38090 ft | 411 kts | 276° |
| 2026-05-08 11:04 | 46.66239 | 16.62435 | 38086 ft | 411 kts | 275° |
| 2026-05-08 11:04 | 46.67060 | 16.54461 | 38091 ft | 411 kts | 275° |
| 2026-05-08 11:05 | 46.67869 | 16.46552 | 38091 ft | 412 kts | 275° |
| 2026-05-08 11:05 | 46.68566 | 16.38171 | 38097 ft | 411 kts | 272° |
| 2026-05-08 11:06 | 46.68935 | 16.30012 | 38093 ft | 411 kts | 271° |
| 2026-05-08 11:06 | 46.69266 | 16.21921 | 38092 ft | 411 kts | 271° |
| 2026-05-08 11:07 | 46.69619 | 16.13603 | 38089 ft | 412 kts | 271° |
| 2026-05-08 11:07 | 46.69965 | 16.05666 | 38086 ft | 412 kts | 271° |
| 2026-05-08 11:08 | 46.70330 | 15.97264 | 38085 ft | 412 kts | 271° |
| 2026-05-08 11:08 | 46.70682 | 15.89050 | 38083 ft | 413 kts | 271° |
| 2026-05-08 11:09 | 46.71033 | 15.80707 | 38082 ft | 413 kts | 271° |
| 2026-05-08 11:09 | 46.71377 | 15.72393 | 38083 ft | 413 kts | 271° |
| 2026-05-08 11:10 | 46.71706 | 15.64298 | 38077 ft | 412 kts | 270° |
| 2026-05-08 11:10 | 46.72023 | 15.56350 | 38087 ft | 412 kts | 270° |
| 2026-05-08 11:11 | 46.72336 | 15.48354 | 38080 ft | 413 kts | 270° |
| 2026-05-08 11:11 | 46.72658 | 15.39990 | 38078 ft | 413 kts | 270° |
| 2026-05-08 11:12 | 46.72951 | 15.32253 | 38071 ft | 414 kts | 270° |
| 2026-05-08 11:12 | 46.73261 | 15.23882 | 38082 ft | 414 kts | 270° |
| 2026-05-08 11:13 | 46.73561 | 15.15640 | 38080 ft | 414 kts | 270° |
| 2026-05-08 11:13 | 46.73824 | 15.08270 | 38084 ft | 415 kts | 270° |
| 2026-05-08 11:14 | 46.74108 | 15.00132 | 38071 ft | 415 kts | 270° |
| 2026-05-08 11:14 | 46.74390 | 14.91907 | 38080 ft | 415 kts | 270° |
| 2026-05-08 11:15 | 46.74668 | 14.83631 | 38088 ft | 415 kts | 270° |
| 2026-05-08 11:15 | 46.74941 | 14.75331 | 38085 ft | 414 kts | 270° |
| 2026-05-08 11:16 | 46.75166 | 14.68353 | 38078 ft | 414 kts | 270° |
| 2026-05-08 11:16 | 46.75432 | 14.59887 | 38091 ft | 413 kts | 270° |
| 2026-05-08 11:17 | 46.75689 | 14.51535 | 38082 ft | 413 kts | 270° |
| 2026-05-08 11:17 | 46.75938 | 14.43213 | 38077 ft | 413 kts | 269° |
| 2026-05-08 11:18 | 46.76175 | 14.35150 | 38084 ft | 413 kts | 269° |
| 2026-05-08 11:18 | 46.76414 | 14.26776 | 38085 ft | 414 kts | 269° |
| 2026-05-08 11:19 | 46.76647 | 14.18409 | 38079 ft | 414 kts | 269° |
| 2026-05-08 11:19 | 46.76874 | 14.10032 | 38072 ft | 415 kts | 269° |
| 2026-05-08 11:20 | 46.77097 | 14.01597 | 38074 ft | 416 kts | 269° |
| 2026-05-08 11:20 | 46.77308 | 13.93356 | 38086 ft | 417 kts | 269° |
| 2026-05-08 11:21 | 46.77509 | 13.85282 | 38078 ft | 417 kts | 269° |
| 2026-05-08 11:21 | 46.77713 | 13.76896 | 38068 ft | 419 kts | 269° |
| 2026-05-08 11:22 | 46.77913 | 13.68392 | 38059 ft | 420 kts | 269° |
| 2026-05-08 11:22 | 46.78105 | 13.59951 | 38051 ft | 420 kts | 269° |
| 2026-05-08 11:23 | 46.78293 | 13.51426 | 38072 ft | 421 kts | 269° |
| 2026-05-08 11:23 | 46.78474 | 13.42885 | 38054 ft | 421 kts | 269° |
| 2026-05-08 11:24 | 46.78648 | 13.34409 | 38067 ft | 421 kts | 269° |
| 2026-05-08 11:24 | 46.78817 | 13.25886 | 38071 ft | 420 kts | 269° |
| 2026-05-08 11:25 | 46.78980 | 13.17355 | 38064 ft | 420 kts | 269° |
| 2026-05-08 11:25 | 46.79135 | 13.08841 | 38073 ft | 420 kts | 269° |
| 2026-05-08 11:26 | 46.79285 | 13.00309 | 38068 ft | 421 kts | 269° |
| 2026-05-08 11:26 | 46.79429 | 12.91756 | 38072 ft | 422 kts | 269° |
| 2026-05-08 11:27 | 46.79566 | 12.83173 | 38047 ft | 424 kts | 269° |
| 2026-05-08 11:27 | 46.79698 | 12.74572 | 38070 ft | 423 kts | 269° |
| 2026-05-08 11:28 | 46.79824 | 12.65973 | 38077 ft | 425 kts | 269° |
| 2026-05-08 11:28 | 46.79942 | 12.57333 | 38081 ft | 426 kts | 269° |
| 2026-05-08 11:29 | 46.80056 | 12.48685 | 38089 ft | 426 kts | 269° |
| 2026-05-08 11:29 | 46.80163 | 12.40022 | 38098 ft | 427 kts | 268° |
| 2026-05-08 11:30 | 46.80265 | 12.31366 | 38100 ft | 426 kts | 268° |
| 2026-05-08 11:30 | 46.80234 | 12.22733 | 38103 ft | 424 kts | 265° |
| 2026-05-08 11:31 | 46.79970 | 12.14150 | 38043 ft | 423 kts | 265° |
| 2026-05-08 11:31 | 46.79687 | 12.05592 | 38041 ft | 422 kts | 265° |
| 2026-05-08 11:32 | 46.79421 | 11.97047 | 38049 ft | 421 kts | 265° |
| 2026-05-08 11:32 | 46.79161 | 11.88507 | 38040 ft | 421 kts | 265° |
| 2026-05-08 11:33 | 46.78899 | 11.79991 | 38050 ft | 420 kts | 265° |
| 2026-05-08 11:33 | 46.78631 | 11.71464 | 38029 ft | 420 kts | 265° |
| 2026-05-08 11:34 | 46.78357 | 11.62956 | 38027 ft | 420 kts | 265° |
| 2026-05-08 11:34 | 46.78075 | 11.54451 | 38029 ft | 419 kts | 265° |
| 2026-05-08 11:35 | 46.77790 | 11.45970 | 38040 ft | 419 kts | 265° |
| 2026-05-08 11:35 | 46.77496 | 11.37464 | 38055 ft | 421 kts | 265° |
| 2026-05-08 11:36 | 46.77195 | 11.28924 | 38049 ft | 423 kts | 265° |
| 2026-05-08 11:36 | 46.76886 | 11.20341 | 38081 ft | 424 kts | 265° |
| 2026-05-08 11:37 | 46.76570 | 11.11741 | 38082 ft | 425 kts | 265° |
| 2026-05-08 11:37 | 46.76247 | 11.03132 | 38108 ft | 425 kts | 265° |
| 2026-05-08 11:38 | 46.75973 | 10.95968 | 38094 ft | 427 kts | 265° |
| 2026-05-08 11:38 | 46.75585 | 10.85973 | 38093 ft | 428 kts | 265° |
| 2026-05-08 11:39 | 46.75239 | 10.77300 | 38085 ft | 429 kts | 265° |
| 2026-05-08 11:39 | 46.74888 | 10.68617 | 38072 ft | 428 kts | 265° |
| 2026-05-08 11:40 | 46.74531 | 10.59968 | 38082 ft | 427 kts | 264° |
| 2026-05-08 11:40 | 46.74229 | 10.52745 | 38076 ft | 426 kts | 265° |
| 2026-05-08 11:41 | 46.73948 | 10.44146 | 38085 ft | 428 kts | 271° |
| 2026-05-08 11:41 | 46.75040 | 10.35579 | 38073 ft | 431 kts | 287° |
| 2026-05-08 11:42 | 46.77330 | 10.27500 | 38074 ft | 432 kts | 290° |
| 2026-05-08 11:42 | 46.79697 | 10.19466 | 38089 ft | 430 kts | 290° |
| 2026-05-08 11:43 | 46.82016 | 10.11477 | 38081 ft | 430 kts | 289° |
| 2026-05-08 11:43 | 46.84324 | 10.03420 | 38070 ft | 430 kts | 289° |
| 2026-05-08 11:44 | 46.86615 | 9.95370 | 38063 ft | 430 kts | 289° |
| 2026-05-08 11:44 | 46.88904 | 9.87301 | 38070 ft | 431 kts | 289° |
| 2026-05-08 11:45 | 46.91198 | 9.79188 | 38068 ft | 432 kts | 289° |
| 2026-05-08 11:45 | 46.93492 | 9.71050 | 38072 ft | 433 kts | 289° |
| 2026-05-08 11:46 | 46.95787 | 9.62882 | 38049 ft | 434 kts | 289° |
| 2026-05-08 11:46 | 46.98079 | 9.54697 | 38043 ft | 435 kts | 289° |
| 2026-05-08 11:47 | 47.00359 | 9.46524 | 38053 ft | 436 kts | 289° |
| 2026-05-08 11:47 | 47.02646 | 9.38299 | 38060 ft | 436 kts | 289° |
| 2026-05-08 11:48 | 47.04930 | 9.30059 | 38047 ft | 436 kts | 289° |
| 2026-05-08 11:48 | 47.07207 | 9.21814 | 38067 ft | 436 kts | 289° |
| 2026-05-08 11:49 | 47.09476 | 9.13568 | 38041 ft | 435 kts | 289° |
| 2026-05-08 11:49 | 47.11736 | 9.05328 | 38054 ft | 435 kts | 289° |
| 2026-05-08 11:50 | 47.13953 | 8.97219 | 38054 ft | 435 kts | 289° |
| 2026-05-08 11:50 | 47.16178 | 8.89020 | 38060 ft | 434 kts | 288° |
| 2026-05-08 11:51 | 47.18269 | 8.80814 | 38052 ft | 434 kts | 287° |
| 2026-05-08 11:51 | 47.20332 | 8.72572 | 38054 ft | 434 kts | 287° |
| 2026-05-08 11:52 | 47.22436 | 8.64201 | 38054 ft | 434 kts | 288° |
| 2026-05-08 11:52 | 47.24516 | 8.55927 | 38052 ft | 434 kts | 288° |
| 2026-05-08 11:53 | 47.26499 | 8.48021 | 38064 ft | 434 kts | 288° |
| 2026-05-08 11:53 | 47.28583 | 8.39744 | 38062 ft | 434 kts | 288° |
| 2026-05-08 11:54 | 47.30667 | 8.31445 | 38057 ft | 435 kts | 288° |
| 2026-05-08 11:54 | 47.32658 | 8.23479 | 38056 ft | 435 kts | 288° |
| 2026-05-08 11:55 | 47.34737 | 8.15133 | 38051 ft | 436 kts | 288° |
| 2026-05-08 11:55 | 47.36793 | 8.06852 | 38059 ft | 436 kts | 288° |
| 2026-05-08 11:56 | 47.38581 | 7.99624 | 38050 ft | 436 kts | 288° |
| 2026-05-08 11:56 | 47.40631 | 7.91304 | 38052 ft | 436 kts | 288° |
| 2026-05-08 11:57 | 47.42648 | 7.83092 | 38043 ft | 436 kts | 287° |
| 2026-05-08 11:57 | 47.44648 | 7.74925 | 38046 ft | 437 kts | 287° |
| 2026-05-08 11:58 | 47.46200 | 7.66808 | 38056 ft | 433 kts | 276° |
| 2026-05-08 11:58 | 47.46252 | 7.58117 | 38056 ft | 430 kts | 263° |
| 2026-05-08 11:59 | 47.45313 | 7.45064 | 38032 ft | 430 kts | 263° |
| 2026-05-08 11:59 | 47.44704 | 7.36425 | 38028 ft | 431 kts | 263° |
| 2026-05-08 12:00 | 47.44145 | 7.28266 | 38035 ft | 430 kts | 263° |
| 2026-05-08 12:00 | 47.43550 | 7.19579 | 38044 ft | 430 kts | 263° |
| 2026-05-08 12:01 | 47.42955 | 7.10984 | 38046 ft | 430 kts | 263° |
| 2026-05-08 12:01 | 47.42375 | 7.02712 | 38045 ft | 431 kts | 263° |
| 2026-05-08 12:02 | 47.41764 | 6.94090 | 38049 ft | 430 kts | 263° |
| 2026-05-08 12:02 | 47.41143 | 6.85418 | 38049 ft | 431 kts | 263° |
| 2026-05-08 12:03 | 47.40512 | 6.76693 | 38053 ft | 431 kts | 263° |
| 2026-05-08 12:03 | 47.39874 | 6.67962 | 38030 ft | 431 kts | 263° |
| 2026-05-08 12:04 | 47.39220 | 6.59164 | 38054 ft | 431 kts | 263° |
| 2026-05-08 12:04 | 47.38557 | 6.50369 | 38046 ft | 431 kts | 263° |
| 2026-05-08 12:05 | 47.37888 | 6.41582 | 38038 ft | 431 kts | 263° |
| 2026-05-08 12:05 | 47.37221 | 6.32897 | 38042 ft | 431 kts | 263° |
| 2026-05-08 12:06 | 47.36540 | 6.24117 | 38040 ft | 431 kts | 263° |
| 2026-05-08 12:06 | 47.35854 | 6.15348 | 38048 ft | 430 kts | 263° |
| 2026-05-08 12:07 | 47.35161 | 6.06578 | 38033 ft | 430 kts | 263° |
| 2026-05-08 12:07 | 47.34447 | 5.97829 | 38036 ft | 430 kts | 263° |
| 2026-05-08 12:08 | 47.33703 | 5.89093 | 38036 ft | 429 kts | 262° |
| 2026-05-08 12:08 | 47.32963 | 5.80371 | 38034 ft | 429 kts | 263° |
| 2026-05-08 12:09 | 47.32266 | 5.71652 | 38038 ft | 428 kts | 263° |
| 2026-05-08 12:09 | 47.31571 | 5.62969 | 38038 ft | 428 kts | 263° |
| 2026-05-08 12:10 | 47.30864 | 5.54277 | 38039 ft | 427 kts | 263° |
| 2026-05-08 12:10 | 47.30148 | 5.45573 | 37867 ft | 430 kts | 263° |
| 2026-05-08 12:11 | 47.30047 | 5.41202 | 37303 ft | 435 kts | 278° |
| 2026-05-08 12:11 | 47.30844 | 5.36938 | 36819 ft | 432 kts | 293° |
| 2026-05-08 12:11 | 47.32380 | 5.33141 | 36295 ft | 432 kts | 306° |
| 2026-05-08 12:11 | 47.34461 | 5.29939 | 35700 ft | 436 kts | 320° |
| 2026-05-08 12:12 | 47.36999 | 5.27573 | 35124 ft | 438 kts | 328° |
| 2026-05-08 12:12 | 47.39693 | 5.25418 | 34494 ft | 439 kts | 329° |
| 2026-05-08 12:12 | 47.42392 | 5.23308 | 33883 ft | 439 kts | 329° |
| 2026-05-08 12:12 | 47.45069 | 5.21198 | 33398 ft | 434 kts | 329° |
| 2026-05-08 12:13 | 47.47712 | 5.19078 | 32957 ft | 429 kts | 328° |
| 2026-05-08 12:13 | 47.50309 | 5.16965 | 32491 ft | 424 kts | 328° |
| 2026-05-08 12:13 | 47.52845 | 5.14885 | 32075 ft | 420 kts | 328° |
| 2026-05-08 12:13 | 47.55384 | 5.12797 | 31634 ft | 416 kts | 328° |
| 2026-05-08 12:14 | 47.57887 | 5.10740 | 31202 ft | 412 kts | 328° |
| 2026-05-08 12:14 | 47.60282 | 5.08474 | 30781 ft | 405 kts | 319° |
| 2026-05-08 12:14 | 47.62414 | 5.05797 | 30397 ft | 400 kts | 316° |
| 2026-05-08 12:14 | 47.64488 | 5.03061 | 29947 ft | 397 kts | 315° |
| 2026-05-08 12:15 | 47.66549 | 5.00358 | 29510 ft | 393 kts | 316° |
| 2026-05-08 12:15 | 47.68601 | 4.97717 | 29052 ft | 389 kts | 316° |
| 2026-05-08 12:15 | 47.70645 | 4.95125 | 28628 ft | 385 kts | 316° |
| 2026-05-08 12:15 | 47.72678 | 4.92562 | 28183 ft | 381 kts | 316° |
| 2026-05-08 12:16 | 47.74673 | 4.90045 | 27841 ft | 376 kts | 316° |
| 2026-05-08 12:16 | 47.76650 | 4.87546 | 27582 ft | 372 kts | 316° |
| 2026-05-08 12:16 | 47.78648 | 4.85013 | 27326 ft | 383 kts | 316° |
| 2026-05-08 12:16 | 47.80686 | 4.82423 | 27153 ft | 386 kts | 316° |
| 2026-05-08 12:17 | 47.82734 | 4.79821 | 27170 ft | 389 kts | 316° |
| 2026-05-08 12:17 | 47.84804 | 4.77187 | 27158 ft | 393 kts | 316° |
| 2026-05-08 12:17 | 47.86879 | 4.74547 | 27142 ft | 391 kts | 316° |
| 2026-05-08 12:17 | 47.88917 | 4.71955 | 26893 ft | 383 kts | 316° |
| 2026-05-08 12:18 | 47.90941 | 4.69375 | 26398 ft | 382 kts | 316° |
| 2026-05-08 12:18 | 47.92967 | 4.66789 | 25770 ft | 385 kts | 316° |
| 2026-05-08 12:18 | 47.95000 | 4.64189 | 25397 ft | 381 kts | 316° |
| 2026-05-08 12:18 | 47.97001 | 4.61628 | 25068 ft | 377 kts | 316° |
| 2026-05-08 12:19 | 47.98946 | 4.59139 | 24827 ft | 371 kts | 316° |
| 2026-05-08 12:19 | 48.00933 | 4.56589 | 24582 ft | 375 kts | 316° |
| 2026-05-08 12:19 | 48.02929 | 4.54023 | 24342 ft | 381 kts | 316° |
| 2026-05-08 12:19 | 48.04912 | 4.51472 | 24087 ft | 383 kts | 316° |
| 2026-05-08 12:20 | 48.06941 | 4.48861 | 23826 ft | 380 kts | 316° |
| 2026-05-08 12:20 | 48.08944 | 4.46283 | 23565 ft | 379 kts | 316° |
| 2026-05-08 12:20 | 48.10936 | 4.43715 | 23271 ft | 377 kts | 316° |
| 2026-05-08 12:20 | 48.12917 | 4.41159 | 22997 ft | 375 kts | 316° |
| 2026-05-08 12:21 | 48.14889 | 4.38611 | 22749 ft | 373 kts | 316° |
| 2026-05-08 12:21 | 48.16825 | 4.36106 | 22495 ft | 372 kts | 316° |
| 2026-05-08 12:21 | 48.18802 | 4.33546 | 22245 ft | 371 kts | 316° |
| 2026-05-08 12:21 | 48.20748 | 4.31022 | 21993 ft | 370 kts | 316° |
| 2026-05-08 12:22 | 48.22667 | 4.28533 | 21751 ft | 369 kts | 316° |
| 2026-05-08 12:22 | 48.24627 | 4.25987 | 21516 ft | 368 kts | 316° |
| 2026-05-08 12:22 | 48.26523 | 4.23482 | 21268 ft | 366 kts | 313° |
| 2026-05-08 12:22 | 48.28233 | 4.20611 | 21026 ft | 363 kts | 306° |
| 2026-05-08 12:23 | 48.29787 | 4.17629 | 20788 ft | 362 kts | 305° |
| 2026-05-08 12:23 | 48.31342 | 4.14648 | 20549 ft | 362 kts | 306° |
| 2026-05-08 12:23 | 48.32904 | 4.11737 | 20308 ft | 362 kts | 306° |
| 2026-05-08 12:23 | 48.34497 | 4.08816 | 20067 ft | 362 kts | 307° |
| 2026-05-08 12:24 | 48.36101 | 4.05888 | 19745 ft | 363 kts | 307° |
| 2026-05-08 12:24 | 48.37698 | 4.02973 | 19427 ft | 361 kts | 307° |
| 2026-05-08 12:24 | 48.39287 | 4.00069 | 19096 ft | 358 kts | 307° |
| 2026-05-08 12:24 | 48.40859 | 3.97191 | 18782 ft | 356 kts | 307° |
| 2026-05-08 12:25 | 48.42427 | 3.94316 | 18452 ft | 354 kts | 307° |
| 2026-05-08 12:25 | 48.43984 | 3.91458 | 18102 ft | 352 kts | 307° |
| 2026-05-08 12:25 | 48.45530 | 3.88617 | 17751 ft | 350 kts | 307° |
| 2026-05-08 12:25 | 48.47065 | 3.85790 | 17422 ft | 347 kts | 307° |
| 2026-05-08 12:26 | 48.48586 | 3.82987 | 17110 ft | 345 kts | 307° |
| 2026-05-08 12:26 | 48.50101 | 3.80196 | 16789 ft | 343 kts | 307° |
| 2026-05-08 12:26 | 48.51603 | 3.77424 | 16484 ft | 340 kts | 307° |
| 2026-05-08 12:26 | 48.53096 | 3.74665 | 16183 ft | 339 kts | 307° |
| 2026-05-08 12:27 | 48.54546 | 3.71890 | 15946 ft | 334 kts | 303° |
| 2026-05-08 12:27 | 48.55353 | 3.70076 | 15844 ft | 330 kts | 300° |
| 2026-05-08 12:27 | 48.56572 | 3.67141 | 15683 ft | 331 kts | 300° |
| 2026-05-08 12:27 | 48.57803 | 3.64166 | 15529 ft | 336 kts | 300° |
| 2026-05-08 12:28 | 48.59065 | 3.61177 | 15341 ft | 339 kts | 301° |
| 2026-05-08 12:28 | 48.60310 | 3.58263 | 15167 ft | 337 kts | 301° |
| 2026-05-08 12:28 | 48.61558 | 3.55352 | 14989 ft | 336 kts | 301° |
| 2026-05-08 12:28 | 48.62828 | 3.52391 | 14785 ft | 336 kts | 301° |
| 2026-05-08 12:29 | 48.64098 | 3.49425 | 14586 ft | 336 kts | 301° |
| 2026-05-08 12:29 | 48.65368 | 3.46458 | 14397 ft | 336 kts | 301° |
| 2026-05-08 12:29 | 48.66634 | 3.43494 | 14199 ft | 335 kts | 301° |
| 2026-05-08 12:29 | 48.67898 | 3.40530 | 13996 ft | 335 kts | 301° |
| 2026-05-08 12:30 | 48.69122 | 3.37659 | 13792 ft | 334 kts | 301° |
| 2026-05-08 12:30 | 48.70383 | 3.34696 | 13575 ft | 333 kts | 301° |
| 2026-05-08 12:30 | 48.71631 | 3.31761 | 13367 ft | 332 kts | 301° |
| 2026-05-08 12:30 | 48.72876 | 3.28830 | 13171 ft | 329 kts | 301° |
| 2026-05-08 12:31 | 48.74061 | 3.26037 | 13078 ft | 327 kts | 301° |
| 2026-05-08 12:31 | 48.75326 | 3.23054 | 13051 ft | 322 kts | 301° |
| 2026-05-08 12:31 | 48.76506 | 3.20268 | 13043 ft | 311 kts | 301° |
| 2026-05-08 12:31 | 48.77646 | 3.17574 | 13037 ft | 298 kts | 300° |
| 2026-05-08 12:32 | 48.78724 | 3.15025 | 13038 ft | 285 kts | 300° |
| 2026-05-08 12:32 | 48.79766 | 3.12555 | 13044 ft | 272 kts | 300° |
| 2026-05-08 12:32 | 48.80679 | 3.10392 | 13040 ft | 260 kts | 300° |
| 2026-05-08 12:32 | 48.81651 | 3.08086 | 13045 ft | 249 kts | 300° |
| 2026-05-08 12:33 | 48.82569 | 3.05905 | 13046 ft | 244 kts | 300° |
| 2026-05-08 12:33 | 48.83486 | 3.03721 | 13074 ft | 248 kts | 300° |
| 2026-05-08 12:33 | 48.84428 | 3.01488 | 13078 ft | 254 kts | 301° |
| 2026-05-08 12:33 | 48.85547 | 2.99389 | 13067 ft | 257 kts | 310° |
| 2026-05-08 12:34 | 48.86772 | 2.97425 | 13055 ft | 255 kts | 311° |
| 2026-05-08 12:34 | 48.87826 | 2.95743 | 13053 ft | 254 kts | 310° |
| 2026-05-08 12:34 | 48.89027 | 2.93794 | 13058 ft | 252 kts | 310° |
| 2026-05-08 12:34 | 48.90216 | 2.91838 | 13057 ft | 252 kts | 310° |
| 2026-05-08 12:35 | 48.91401 | 2.89878 | 13065 ft | 253 kts | 310° |
| 2026-05-08 12:35 | 48.92619 | 2.87852 | 13089 ft | 265 kts | 309° |
| 2026-05-08 12:35 | 48.93554 | 2.85532 | 13044 ft | 264 kts | 281° |
| 2026-05-08 12:35 | 48.93680 | 2.82903 | 13073 ft | 259 kts | 265° |
| 2026-05-08 12:36 | 48.93551 | 2.80188 | 13015 ft | 256 kts | 263° |
| 2026-05-08 12:36 | 48.93391 | 2.77506 | 12819 ft | 254 kts | 263° |
| 2026-05-08 12:36 | 48.93231 | 2.74843 | 12473 ft | 253 kts | 263° |
| 2026-05-08 12:36 | 48.93098 | 2.72578 | 12061 ft | 255 kts | 263° |
| 2026-05-08 12:37 | 48.92943 | 2.69864 | 11500 ft | 260 kts | 264° |
| 2026-05-08 12:37 | 48.92788 | 2.67098 | 11061 ft | 265 kts | 264° |
| 2026-05-08 12:37 | 48.92638 | 2.64359 | 10819 ft | 263 kts | 264° |
| 2026-05-08 12:37 | 48.92525 | 2.62295 | 10659 ft | 261 kts | 264° |
| 2026-05-08 12:38 | 48.92389 | 2.59800 | 10489 ft | 258 kts | 264° |
| 2026-05-08 12:38 | 48.92254 | 2.57306 | 10283 ft | 256 kts | 264° |
| 2026-05-08 12:38 | 48.92109 | 2.54619 | 10088 ft | 256 kts | 264° |
| 2026-05-08 12:38 | 48.91971 | 2.52091 | 10059 ft | 253 kts | 264° |
| 2026-05-08 12:39 | 48.91834 | 2.49604 | 10057 ft | 255 kts | 264° |
| 2026-05-08 12:39 | 48.91689 | 2.46978 | 10024 ft | 251 kts | 264° |
| 2026-05-08 12:39 | 48.91554 | 2.44543 | 9887 ft | 246 kts | 264° |
| 2026-05-08 12:39 | 48.91412 | 2.41986 | 9651 ft | 243 kts | 264° |
| 2026-05-08 12:40 | 48.91289 | 2.39796 | 9366 ft | 245 kts | 264° |
| 2026-05-08 12:40 | 48.91188 | 2.37989 | 9156 ft | 245 kts | 265° |
| 2026-05-08 12:40 | 48.91047 | 2.35486 | 8891 ft | 245 kts | 264° |
| 2026-05-08 12:40 | 48.90904 | 2.32939 | 8708 ft | 240 kts | 264° |
| 2026-05-08 12:41 | 48.90777 | 2.30691 | 8415 ft | 242 kts | 265° |
| 2026-05-08 12:41 | 48.90634 | 2.28160 | 8134 ft | 242 kts | 265° |
| 2026-05-08 12:41 | 48.90491 | 2.25654 | 7947 ft | 239 kts | 265° |
| 2026-05-08 12:41 | 48.90349 | 2.23156 | 7661 ft | 240 kts | 265° |
| 2026-05-08 12:42 | 48.90205 | 2.20641 | 7464 ft | 236 kts | 265° |
| 2026-05-08 12:42 | 48.90076 | 2.18400 | 7262 ft | 231 kts | 265° |
| 2026-05-08 12:42 | 48.89963 | 2.16459 | 6903 ft | 234 kts | 265° |
| 2026-05-08 12:42 | 48.89848 | 2.14478 | 6564 ft | 234 kts | 265° |
| 2026-05-08 12:43 | 48.89708 | 2.12025 | 6128 ft | 233 kts | 265° |
| 2026-05-08 12:43 | 48.89588 | 2.09590 | 5654 ft | 235 kts | 266° |
| 2026-05-08 12:43 | 48.89474 | 2.07069 | 5234 ft | 234 kts | 266° |
| 2026-05-08 12:43 | 48.89373 | 2.04818 | 5139 ft | 235 kts | 266° |
| 2026-05-08 12:44 | 48.89555 | 2.02358 | 5018 ft | 235 kts | 294° |
| 2026-05-08 12:44 | 48.90548 | 2.00447 | 5003 ft | 227 kts | 328° |
| 2026-05-08 12:44 | 48.92015 | 1.99724 | 5008 ft | 224 kts | 2° |
| 2026-05-08 12:44 | 48.93497 | 2.00314 | 5010 ft | 222 kts | 28° |
| 2026-05-08 12:45 | 48.94841 | 2.01439 | 4997 ft | 218 kts | 31° |
| 2026-05-08 12:45 | 48.96042 | 2.02637 | 4965 ft | 204 kts | 47° |
| 2026-05-08 12:45 | 48.96572 | 2.04399 | 5000 ft | 187 kts | 84° |
| 2026-05-08 12:45 | 48.96691 | 2.06369 | 5004 ft | 191 kts | 84° |
| 2026-05-08 12:46 | 48.96821 | 2.08317 | 4993 ft | 188 kts | 84° |
| 2026-05-08 12:46 | 48.96933 | 2.10272 | 4989 ft | 184 kts | 85° |
| 2026-05-08 12:46 | 48.97035 | 2.12211 | 4994 ft | 184 kts | 85° |
| 2026-05-08 12:46 | 48.97133 | 2.14154 | 4992 ft | 186 kts | 85° |
| 2026-05-08 12:47 | 48.97230 | 2.16109 | 5009 ft | 186 kts | 85° |
| 2026-05-08 12:47 | 48.97327 | 2.18072 | 5004 ft | 185 kts | 85° |
| 2026-05-08 12:47 | 48.97418 | 2.19934 | 5018 ft | 185 kts | 85° |
| 2026-05-08 12:47 | 48.97518 | 2.21947 | 4788 ft | 193 kts | 85° |
| 2026-05-08 12:48 | 48.97619 | 2.23977 | 4536 ft | 192 kts | 85° |
| 2026-05-08 12:48 | 48.97718 | 2.25970 | 4282 ft | 187 kts | 85° |
| 2026-05-08 12:48 | 48.97815 | 2.27917 | 4024 ft | 182 kts | 85° |
| 2026-05-08 12:48 | 48.97906 | 2.29713 | 3800 ft | 181 kts | 85° |
| 2026-05-08 12:49 | 48.98002 | 2.31628 | 3563 ft | 184 kts | 85° |
| 2026-05-08 12:49 | 48.98101 | 2.33563 | 3331 ft | 183 kts | 85° |
| 2026-05-08 12:49 | 48.98198 | 2.35479 | 3085 ft | 180 kts | 85° |
| 2026-05-08 12:49 | 48.98294 | 2.37365 | 2840 ft | 178 kts | 85° |
| 2026-05-08 12:50 | 48.98390 | 2.39249 | 2593 ft | 179 kts | 85° |
| 2026-05-08 12:50 | 48.98487 | 2.41141 | 2362 ft | 181 kts | 85° |
| 2026-05-08 12:50 | 48.98584 | 2.43033 | 2104 ft | 179 kts | 85° |
| 2026-05-08 12:50 | 48.98679 | 2.44879 | 1871 ft | 175 kts | 84° |
| 2026-05-08 12:51 | 48.98772 | 2.46671 | 1634 ft | 164 kts | 85° |
| 2026-05-08 12:51 | 48.98929 | 2.49660 | 1274 ft | 146 kts | 85° |
| 2026-05-08 12:51 | 48.99010 | 2.51223 | 1079 ft | 152 kts | 85° |
| 2026-05-08 12:52 | 48.99073 | 2.52426 | 913 ft | 154 kts | 85° |
| 2026-05-08 12:52 | 48.99241 | 2.55615 | 505 ft | 149 kts | 84° |
| 2026-05-08 12:52 | 48.99324 | 2.57176 | 370 ft | 146 kts | 84° |
| 2026-05-08 12:53 | 48.99399 | 2.58543 | 361 ft | 105 kts | 85° |
| 2026-05-08 12:53 | 48.99441 | 2.59331 | 357 ft | 55 kts | 85° |
| 2026-05-08 12:53 | 48.99473 | 2.59790 | 359 ft | 32 kts | 76° |
| 2026-05-08 12:53 | 48.99555 | 2.59960 | 353 ft | 9 kts | 26° |
| 2026-05-08 12:54 | 48.99569 | 2.59968 | 356 ft | 0 kts | 17° |
| 2026-05-08 12:54 | 48.99581 | 2.59973 | 358 ft | 5 kts | 14° |
| 2026-05-08 12:54 | 48.99630 | 2.59978 | 355 ft | 8 kts | 357° |
| 2026-05-08 12:55 | 48.99682 | 2.59973 | 353 ft | 7 kts | 356° |
| 2026-05-08 12:55 | 48.99697 | 2.59972 | 356 ft | 0 kts | 355° |
| 2026-05-08 12:57 | 48.99703 | 2.59971 | 355 ft | 4 kts | 355° |
| 2026-05-08 12:57 | 48.99761 | 2.59964 | 353 ft | 11 kts | 356° |
| 2026-05-08 12:57 | 48.99838 | 2.59957 | 356 ft | 11 kts | 1° |
| 2026-05-08 12:57 | 48.99903 | 2.60010 | 363 ft | 11 kts | 49° |
| 2026-05-08 12:58 | 48.99961 | 2.60073 | 353 ft | 10 kts | 5° |
| 2026-05-08 12:58 | 49.00010 | 2.60008 | 358 ft | 10 kts | 282° |
| 2026-05-08 12:58 | 49.00005 | 2.59901 | 353 ft | 10 kts | 264° |
| 2026-05-08 12:58 | 48.99999 | 2.59800 | 355 ft | 10 kts | 265° |
| 2026-05-08 12:59 | 48.99993 | 2.59698 | 356 ft | 9 kts | 265° |
| 2026-05-08 12:59 | 48.99988 | 2.59602 | 361 ft | 9 kts | 265° |
| 2026-05-08 12:59 | 48.99983 | 2.59507 | 357 ft | 9 kts | 265° |
| 2026-05-08 12:59 | 48.99977 | 2.59415 | 356 ft | 9 kts | 265° |
| 2026-05-08 13:00 | 48.99972 | 2.59325 | 358 ft | 8 kts | 265° |
| 2026-05-08 13:00 | 48.99967 | 2.59238 | 353 ft | 8 kts | 265° |
| 2026-05-08 13:00 | 48.99963 | 2.59153 | 353 ft | 8 kts | 265° |
| 2026-05-08 13:00 | 48.99959 | 2.59072 | 360 ft | 8 kts | 265° |
| 2026-05-08 13:01 | 48.99955 | 2.58992 | 353 ft | 7 kts | 265° |
| 2026-05-08 13:01 | 48.99951 | 2.58916 | 353 ft | 7 kts | 265° |
| 2026-05-08 13:01 | 48.99947 | 2.58842 | 356 ft | 7 kts | 265° |
| 2026-05-08 13:01 | 48.99943 | 2.58769 | 360 ft | 7 kts | 266° |
| 2026-05-08 13:02 | 48.99940 | 2.58698 | 353 ft | 7 kts | 266° |
| 2026-05-08 13:02 | 48.99937 | 2.58628 | 353 ft | 7 kts | 266° |
| 2026-05-08 13:02 | 48.99934 | 2.58560 | 353 ft | 6 kts | 266° |
| 2026-05-08 13:02 | 48.99931 | 2.58492 | 353 ft | 6 kts | 266° |
| 2026-05-08 13:03 | 48.99928 | 2.58426 | 359 ft | 6 kts | 266° |
| 2026-05-08 13:03 | 48.99925 | 2.58362 | 353 ft | 6 kts | 265° |
| 2026-05-08 13:03 | 48.99921 | 2.58299 | 353 ft | 6 kts | 265° |
| 2026-05-08 13:03 | 48.99918 | 2.58235 | 360 ft | 6 kts | 265° |
| 2026-05-08 13:04 | 48.99913 | 2.58163 | 359 ft | 7 kts | 265° |
| 2026-05-08 13:04 | 48.99908 | 2.58082 | 356 ft | 8 kts | 265° |
| 2026-05-08 13:04 | 48.99903 | 2.57994 | 355 ft | 9 kts | 265° |
| 2026-05-08 13:04 | 48.99898 | 2.57898 | 353 ft | 9 kts | 265° |
| 2026-05-08 13:05 | 48.99893 | 2.57796 | 353 ft | 10 kts | 265° |
| 2026-05-08 13:05 | 48.99887 | 2.57687 | 362 ft | 10 kts | 265° |
| 2026-05-08 13:05 | 48.99881 | 2.57574 | 353 ft | 11 kts | 265° |
| 2026-05-08 13:05 | 48.99875 | 2.57455 | 360 ft | 12 kts | 265° |
| 2026-05-08 13:06 | 48.99869 | 2.57356 | 359 ft | 8 kts | 265° |
| 2026-05-08 13:06 | 48.99864 | 2.57268 | 353 ft | 8 kts | 265° |
| 2026-05-08 13:06 | 48.99859 | 2.57186 | 355 ft | 8 kts | 265° |
| 2026-05-08 13:06 | 48.99857 | 2.57098 | 353 ft | 9 kts | 275° |
| 2026-05-08 13:07 | 48.99885 | 2.57021 | 361 ft | 8 kts | 320° |
| 2026-05-08 13:07 | 48.99929 | 2.56998 | 355 ft | 5 kts | 351° |
| 2026-05-08 13:07 | 48.99940 | 2.56995 | 357 ft | 2 kts | 351° |
| 2026-05-08 13:07 | 48.99953 | 2.56992 | 353 ft | 2 kts | 353° |
| 2026-05-08 13:08 | 48.99972 | 2.56991 | 355 ft | 3 kts | 0° |
| 2026-05-08 13:08 | 48.99994 | 2.56992 | 353 ft | 4 kts | 359° |
| 2026-05-08 13:08 | 49.00021 | 2.56990 | 353 ft | 4 kts | 358° |
| 2026-05-08 13:08 | 49.00048 | 2.56988 | 353 ft | 3 kts | 356° |
| 2026-05-08 13:09 | 49.00066 | 2.56986 | 353 ft | 3 kts | 356° |
| 2026-05-08 13:09 | 49.00086 | 2.56984 | 353 ft | 3 kts | 358° |
| 2026-05-08 13:09 | 49.00109 | 2.56991 | 353 ft | 4 kts | 21° |
| 2026-05-08 13:09 | 49.00126 | 2.57020 | 358 ft | 4 kts | 49° |
| 2026-05-08 13:10 | 49.00153 | 2.57032 | 356 ft | 4 kts | 1° |
| 2026-05-08 13:10 | 49.00185 | 2.57029 | 353 ft | 5 kts | 354° |
| 2026-05-08 13:10 | 49.00218 | 2.57013 | 356 ft | 4 kts | 330° |
| 2026-05-08 13:10 | 49.00234 | 2.56993 | 360 ft | 2 kts | 320° |
| 2026-05-08 13:11 | 49.00237 | 2.56990 | 359 ft | 0 kts | 320° |
| 2026-05-08 13:11 | 49.00238 | 2.56988 | 359 ft | 0 kts | 320° |